sensor_id;sensor_type;location;lat;lon;timestamp;P1;durP1;ratioP1;P2;durP2;ratioP2
8001;SDS011;4046;48.774;8.732;2023-04-06T00:02:16;2.20;;;2.10;;
8001;SDS011;4046;48.774;8.732;2023-04-06T00:04:43;2.10;;;1.90;;
8001;SDS011;4046;48.774;8.732;2023-04-06T00:07:10;2.30;;;2.20;;
8001;SDS011;4046;48.774;8.732;2023-04-06T00:09:36;2.57;;;2.37;;
8001;SDS011;4046;48.774;8.732;2023-04-06T00:12:02;2.50;;;2.30;;
8001;SDS011;4046;48.774;8.732;2023-04-06T00:14:29;2.57;;;2.47;;
8001;SDS011;4046;48.774;8.732;2023-04-06T00:16:55;2.40;;;2.30;;
8001;SDS011;4046;48.774;8.732;2023-04-06T00:19:21;3.20;;;3.00;;
8001;SDS011;4046;48.774;8.732;2023-04-06T00:21:48;2.63;;;2.43;;
8001;SDS011;4046;48.774;8.732;2023-04-06T00:24:14;2.47;;;2.37;;
8001;SDS011;4046;48.774;8.732;2023-04-06T00:26:40;2.50;;;2.37;;
8001;SDS011;4046;48.774;8.732;2023-04-06T00:29:07;2.70;;;2.50;;
8001;SDS011;4046;48.774;8.732;2023-04-06T00:31:33;2.80;;;2.60;;
8001;SDS011;4046;48.774;8.732;2023-04-06T00:33:59;2.70;;;2.50;;
8001;SDS011;4046;48.774;8.732;2023-04-06T00:36:25;2.83;;;2.63;;
8001;SDS011;4046;48.774;8.732;2023-04-06T00:38:52;2.93;;;2.73;;
8001;SDS011;4046;48.774;8.732;2023-04-06T00:41:18;2.77;;;2.57;;
8001;SDS011;4046;48.774;8.732;2023-04-06T00:43:46;2.60;;;2.40;;
8001;SDS011;4046;48.774;8.732;2023-04-06T00:46:12;2.77;;;2.57;;
8001;SDS011;4046;48.774;8.732;2023-04-06T00:48:38;2.80;;;2.60;;
8001;SDS011;4046;48.774;8.732;2023-04-06T00:51:06;2.80;;;2.60;;
8001;SDS011;4046;48.774;8.732;2023-04-06T00:53:32;3.10;;;2.90;;
8001;SDS011;4046;48.774;8.732;2023-04-06T00:55:58;2.43;;;2.23;;
8001;SDS011;4046;48.774;8.732;2023-04-06T00:58:25;2.80;;;2.60;;
8001;SDS011;4046;48.774;8.732;2023-04-06T01:00:51;2.50;;;2.37;;
8001;SDS011;4046;48.774;8.732;2023-04-06T01:03:17;2.57;;;2.40;;
8001;SDS011;4046;48.774;8.732;2023-04-06T01:05:43;2.87;;;2.67;;
8001;SDS011;4046;48.774;8.732;2023-04-06T01:08:10;2.43;;;2.33;;
8001;SDS011;4046;48.774;8.732;2023-04-06T01:10:36;2.77;;;2.57;;
8001;SDS011;4046;48.774;8.732;2023-04-06T01:13:02;3.17;;;2.97;;
8001;SDS011;4046;48.774;8.732;2023-04-06T01:15:29;2.63;;;2.50;;
8001;SDS011;4046;48.774;8.732;2023-04-06T01:17:55;2.50;;;2.40;;
8001;SDS011;4046;48.774;8.732;2023-04-06T01:20:22;2.33;;;2.13;;
8001;SDS011;4046;48.774;8.732;2023-04-06T01:22:48;2.40;;;2.20;;
8001;SDS011;4046;48.774;8.732;2023-04-06T01:25:14;2.30;;;2.20;;
8001;SDS011;4046;48.774;8.732;2023-04-06T01:27:40;2.80;;;2.60;;
8001;SDS011;4046;48.774;8.732;2023-04-06T01:30:07;2.53;;;2.43;;
8001;SDS011;4046;48.774;8.732;2023-04-06T01:32:33;2.80;;;2.60;;
8001;SDS011;4046;48.774;8.732;2023-04-06T01:34:59;2.53;;;2.33;;
8001;SDS011;4046;48.774;8.732;2023-04-06T01:37:26;2.33;;;2.23;;
8001;SDS011;4046;48.774;8.732;2023-04-06T01:39:52;2.50;;;2.40;;
8001;SDS011;4046;48.774;8.732;2023-04-06T01:42:18;2.70;;;2.50;;
8001;SDS011;4046;48.774;8.732;2023-04-06T01:44:44;2.73;;;2.53;;
8001;SDS011;4046;48.774;8.732;2023-04-06T01:47:11;3.13;;;2.80;;
8001;SDS011;4046;48.774;8.732;2023-04-06T01:49:37;2.80;;;2.60;;
8001;SDS011;4046;48.774;8.732;2023-04-06T01:52:03;3.03;;;2.83;;
8001;SDS011;4046;48.774;8.732;2023-04-06T01:54:30;2.43;;;2.33;;
8001;SDS011;4046;48.774;8.732;2023-04-06T01:56:56;2.83;;;2.63;;
8001;SDS011;4046;48.774;8.732;2023-04-06T01:59:22;2.67;;;2.47;;
8001;SDS011;4046;48.774;8.732;2023-04-06T02:01:48;2.40;;;2.20;;
8001;SDS011;4046;48.774;8.732;2023-04-06T02:04:15;2.60;;;2.50;;
8001;SDS011;4046;48.774;8.732;2023-04-06T02:06:41;2.50;;;2.40;;
8001;SDS011;4046;48.774;8.732;2023-04-06T02:09:07;2.50;;;2.33;;
8001;SDS011;4046;48.774;8.732;2023-04-06T02:11:34;2.87;;;2.67;;
8001;SDS011;4046;48.774;8.732;2023-04-06T02:14:00;2.33;;;2.20;;
8001;SDS011;4046;48.774;8.732;2023-04-06T02:16:27;2.73;;;2.53;;
8001;SDS011;4046;48.774;8.732;2023-04-06T02:18:53;2.10;;;2.00;;
8001;SDS011;4046;48.774;8.732;2023-04-06T02:21:19;2.70;;;2.50;;
8001;SDS011;4046;48.774;8.732;2023-04-06T02:23:46;2.67;;;2.50;;
8001;SDS011;4046;48.774;8.732;2023-04-06T02:26:13;2.50;;;2.30;;
8001;SDS011;4046;48.774;8.732;2023-04-06T02:28:39;2.80;;;2.60;;
8001;SDS011;4046;48.774;8.732;2023-04-06T02:31:05;2.50;;;2.40;;
8001;SDS011;4046;48.774;8.732;2023-04-06T02:33:33;2.53;;;2.43;;
8001;SDS011;4046;48.774;8.732;2023-04-06T02:35:59;2.80;;;2.60;;
8001;SDS011;4046;48.774;8.732;2023-04-06T02:38:25;2.70;;;2.50;;
8001;SDS011;4046;48.774;8.732;2023-04-06T02:40:51;3.33;;;3.10;;
8001;SDS011;4046;48.774;8.732;2023-04-06T02:43:18;2.93;;;2.73;;
8001;SDS011;4046;48.774;8.732;2023-04-06T02:45:45;3.00;;;2.80;;
8001;SDS011;4046;48.774;8.732;2023-04-06T02:48:11;2.60;;;2.40;;
8001;SDS011;4046;48.774;8.732;2023-04-06T02:50:37;2.60;;;2.40;;
8001;SDS011;4046;48.774;8.732;2023-04-06T02:53:04;3.10;;;2.90;;
8001;SDS011;4046;48.774;8.732;2023-04-06T02:55:30;2.70;;;2.50;;
8001;SDS011;4046;48.774;8.732;2023-04-06T02:57:56;2.87;;;2.63;;
8001;SDS011;4046;48.774;8.732;2023-04-06T03:00:22;2.70;;;2.50;;
8001;SDS011;4046;48.774;8.732;2023-04-06T03:02:48;2.67;;;2.47;;
8001;SDS011;4046;48.774;8.732;2023-04-06T03:05:15;2.63;;;2.43;;
8001;SDS011;4046;48.774;8.732;2023-04-06T03:07:42;2.80;;;2.60;;
8001;SDS011;4046;48.774;8.732;2023-04-06T03:10:08;2.43;;;2.33;;
8001;SDS011;4046;48.774;8.732;2023-04-06T03:12:35;2.60;;;2.40;;
8001;SDS011;4046;48.774;8.732;2023-04-06T03:15:01;2.80;;;2.60;;
8001;SDS011;4046;48.774;8.732;2023-04-06T03:17:28;2.90;;;2.70;;
8001;SDS011;4046;48.774;8.732;2023-04-06T03:19:54;2.60;;;2.40;;
8001;SDS011;4046;48.774;8.732;2023-04-06T03:22:20;2.40;;;2.30;;
8001;SDS011;4046;48.774;8.732;2023-04-06T03:24:46;3.17;;;2.87;;
8001;SDS011;4046;48.774;8.732;2023-04-06T03:27:12;2.47;;;2.37;;
8001;SDS011;4046;48.774;8.732;2023-04-06T03:29:39;2.63;;;2.50;;
8001;SDS011;4046;48.774;8.732;2023-04-06T03:32:05;2.37;;;2.23;;
8001;SDS011;4046;48.774;8.732;2023-04-06T03:34:31;2.30;;;2.20;;
8001;SDS011;4046;48.774;8.732;2023-04-06T03:36:57;2.73;;;2.53;;
8001;SDS011;4046;48.774;8.732;2023-04-06T03:39:24;2.50;;;2.40;;
8001;SDS011;4046;48.774;8.732;2023-04-06T03:41:50;2.80;;;2.60;;
8001;SDS011;4046;48.774;8.732;2023-04-06T03:44:16;2.50;;;2.30;;
8001;SDS011;4046;48.774;8.732;2023-04-06T03:46:42;2.60;;;2.40;;
8001;SDS011;4046;48.774;8.732;2023-04-06T03:49:08;2.70;;;2.50;;
8001;SDS011;4046;48.774;8.732;2023-04-06T03:51:35;2.40;;;2.20;;
8001;SDS011;4046;48.774;8.732;2023-04-06T03:54:01;2.40;;;2.30;;
8001;SDS011;4046;48.774;8.732;2023-04-06T03:56:27;2.80;;;2.60;;
8001;SDS011;4046;48.774;8.732;2023-04-06T03:58:53;2.80;;;2.60;;
8001;SDS011;4046;48.774;8.732;2023-04-06T04:01:20;2.20;;;2.10;;
8001;SDS011;4046;48.774;8.732;2023-04-06T04:03:46;2.37;;;2.27;;
8001;SDS011;4046;48.774;8.732;2023-04-06T04:06:12;2.80;;;2.60;;
8001;SDS011;4046;48.774;8.732;2023-04-06T04:08:38;2.70;;;2.50;;
8001;SDS011;4046;48.774;8.732;2023-04-06T04:11:05;2.20;;;2.10;;
8001;SDS011;4046;48.774;8.732;2023-04-06T04:13:31;2.90;;;2.70;;
8001;SDS011;4046;48.774;8.732;2023-04-06T04:15:57;2.60;;;2.40;;
8001;SDS011;4046;48.774;8.732;2023-04-06T04:18:23;2.57;;;2.37;;
8001;SDS011;4046;48.774;8.732;2023-04-06T04:20:50;2.90;;;2.60;;
8001;SDS011;4046;48.774;8.732;2023-04-06T04:23:16;3.20;;;3.00;;
8001;SDS011;4046;48.774;8.732;2023-04-06T04:25:43;2.53;;;2.40;;
8001;SDS011;4046;48.774;8.732;2023-04-06T04:28:09;2.30;;;2.20;;
8001;SDS011;4046;48.774;8.732;2023-04-06T04:30:35;2.57;;;2.47;;
8001;SDS011;4046;48.774;8.732;2023-04-06T04:33:01;2.77;;;2.57;;
8001;SDS011;4046;48.774;8.732;2023-04-06T04:35:29;2.70;;;2.50;;
8001;SDS011;4046;48.774;8.732;2023-04-06T04:37:55;2.43;;;2.30;;
8001;SDS011;4046;48.774;8.732;2023-04-06T04:40:22;2.50;;;2.30;;
8001;SDS011;4046;48.774;8.732;2023-04-06T04:42:48;2.77;;;2.57;;
8001;SDS011;4046;48.774;8.732;2023-04-06T04:45:16;2.40;;;2.23;;
8001;SDS011;4046;48.774;8.732;2023-04-06T04:47:42;2.73;;;2.53;;
8001;SDS011;4046;48.774;8.732;2023-04-06T04:50:09;2.60;;;2.40;;
8001;SDS011;4046;48.774;8.732;2023-04-06T04:52:36;2.47;;;2.37;;
8001;SDS011;4046;48.774;8.732;2023-04-06T04:55:03;2.90;;;2.70;;
8001;SDS011;4046;48.774;8.732;2023-04-06T04:57:29;2.50;;;2.30;;
8001;SDS011;4046;48.774;8.732;2023-04-06T04:59:56;2.50;;;2.40;;
8001;SDS011;4046;48.774;8.732;2023-04-06T05:02:30;2.53;;;2.40;;
8001;SDS011;4046;48.774;8.732;2023-04-06T05:04:57;3.13;;;2.53;;
8001;SDS011;4046;48.774;8.732;2023-04-06T05:07:23;2.97;;;2.77;;
8001;SDS011;4046;48.774;8.732;2023-04-06T05:09:49;2.53;;;2.33;;
8001;SDS011;4046;48.774;8.732;2023-04-06T05:12:16;2.40;;;2.30;;
8001;SDS011;4046;48.774;8.732;2023-04-06T05:14:43;2.47;;;2.37;;
8001;SDS011;4046;48.774;8.732;2023-04-06T05:17:10;2.27;;;2.17;;
8001;SDS011;4046;48.774;8.732;2023-04-06T05:19:36;2.50;;;2.30;;
8001;SDS011;4046;48.774;8.732;2023-04-06T05:22:02;2.67;;;2.47;;
8001;SDS011;4046;48.774;8.732;2023-04-06T05:24:28;2.27;;;2.17;;
8001;SDS011;4046;48.774;8.732;2023-04-06T05:26:55;2.70;;;2.50;;
8001;SDS011;4046;48.774;8.732;2023-04-06T05:29:21;2.27;;;2.17;;
8001;SDS011;4046;48.774;8.732;2023-04-06T05:31:47;2.30;;;2.10;;
8001;SDS011;4046;48.774;8.732;2023-04-06T05:34:13;2.50;;;2.30;;
8001;SDS011;4046;48.774;8.732;2023-04-06T05:36:43;3.40;;;2.23;;
8001;SDS011;4046;48.774;8.732;2023-04-06T05:39:09;2.50;;;2.30;;
8001;SDS011;4046;48.774;8.732;2023-04-06T05:41:35;2.50;;;2.40;;
8001;SDS011;4046;48.774;8.732;2023-04-06T05:44:02;2.90;;;2.70;;
8001;SDS011;4046;48.774;8.732;2023-04-06T05:46:28;2.70;;;2.50;;
8001;SDS011;4046;48.774;8.732;2023-04-06T05:48:54;2.60;;;2.47;;
8001;SDS011;4046;48.774;8.732;2023-04-06T05:51:21;2.67;;;2.47;;
8001;SDS011;4046;48.774;8.732;2023-04-06T05:53:47;2.70;;;2.50;;
8001;SDS011;4046;48.774;8.732;2023-04-06T05:56:14;2.60;;;2.50;;
8001;SDS011;4046;48.774;8.732;2023-04-06T05:58:40;2.97;;;2.63;;
8001;SDS011;4046;48.774;8.732;2023-04-06T06:01:07;2.60;;;2.50;;
8001;SDS011;4046;48.774;8.732;2023-04-06T06:03:34;2.30;;;2.20;;
8001;SDS011;4046;48.774;8.732;2023-04-06T06:06:01;2.70;;;2.50;;
8001;SDS011;4046;48.774;8.732;2023-04-06T06:08:29;2.97;;;2.77;;
8001;SDS011;4046;48.774;8.732;2023-04-06T06:10:55;2.93;;;2.73;;
8001;SDS011;4046;48.774;8.732;2023-04-06T06:13:22;2.30;;;2.20;;
8001;SDS011;4046;48.774;8.732;2023-04-06T06:15:49;2.67;;;2.47;;
8001;SDS011;4046;48.774;8.732;2023-04-06T06:18:16;2.57;;;2.37;;
8001;SDS011;4046;48.774;8.732;2023-04-06T06:20:42;2.20;;;2.10;;
8001;SDS011;4046;48.774;8.732;2023-04-06T06:23:09;2.80;;;2.50;;
8001;SDS011;4046;48.774;8.732;2023-04-06T06:25:35;2.53;;;2.33;;
8001;SDS011;4046;48.774;8.732;2023-04-06T06:28:02;2.57;;;2.47;;
8001;SDS011;4046;48.774;8.732;2023-04-06T06:30:28;2.87;;;2.67;;
8001;SDS011;4046;48.774;8.732;2023-04-06T06:32:55;2.60;;;2.50;;
8001;SDS011;4046;48.774;8.732;2023-04-06T06:35:21;2.80;;;2.60;;
8001;SDS011;4046;48.774;8.732;2023-04-06T06:37:48;2.80;;;2.60;;
8001;SDS011;4046;48.774;8.732;2023-04-06T06:40:14;2.77;;;2.57;;
8001;SDS011;4046;48.774;8.732;2023-04-06T06:42:42;2.57;;;2.47;;
8001;SDS011;4046;48.774;8.732;2023-04-06T06:45:09;2.70;;;2.50;;
8001;SDS011;4046;48.774;8.732;2023-04-06T06:47:36;2.60;;;2.40;;
8001;SDS011;4046;48.774;8.732;2023-04-06T06:50:02;2.83;;;2.50;;
8001;SDS011;4046;48.774;8.732;2023-04-06T06:52:28;2.47;;;2.30;;
8001;SDS011;4046;48.774;8.732;2023-04-06T06:54:55;2.30;;;2.20;;
8001;SDS011;4046;48.774;8.732;2023-04-06T06:57:22;2.23;;;2.13;;
8001;SDS011;4046;48.774;8.732;2023-04-06T06:59:48;3.00;;;2.80;;
8001;SDS011;4046;48.774;8.732;2023-04-06T07:02:20;2.70;;;2.60;;
8001;SDS011;4046;48.774;8.732;2023-04-06T07:04:51;2.67;;;2.47;;
8001;SDS011;4046;48.774;8.732;2023-04-06T07:07:18;2.40;;;2.30;;
8001;SDS011;4046;48.774;8.732;2023-04-06T07:09:44;2.60;;;2.40;;
8001;SDS011;4046;48.774;8.732;2023-04-06T07:12:11;2.50;;;2.40;;
8001;SDS011;4046;48.774;8.732;2023-04-06T07:14:37;3.00;;;2.80;;
8001;SDS011;4046;48.774;8.732;2023-04-06T07:17:03;2.80;;;2.60;;
8001;SDS011;4046;48.774;8.732;2023-04-06T07:19:30;2.30;;;2.10;;
8001;SDS011;4046;48.774;8.732;2023-04-06T07:21:56;4.90;;;2.50;;
8001;SDS011;4046;48.774;8.732;2023-04-06T07:24:22;2.47;;;2.27;;
8001;SDS011;4046;48.774;8.732;2023-04-06T07:26:49;2.60;;;2.40;;
8001;SDS011;4046;48.774;8.732;2023-04-06T07:29:15;2.60;;;2.40;;
8001;SDS011;4046;48.774;8.732;2023-04-06T07:31:41;2.73;;;2.53;;
8001;SDS011;4046;48.774;8.732;2023-04-06T07:34:08;2.93;;;2.73;;
8001;SDS011;4046;48.774;8.732;2023-04-06T07:36:34;5.70;;;2.50;;
8001;SDS011;4046;48.774;8.732;2023-04-06T07:39:00;2.67;;;2.50;;
8001;SDS011;4046;48.774;8.732;2023-04-06T07:41:27;2.60;;;2.40;;
8001;SDS011;4046;48.774;8.732;2023-04-06T07:43:53;2.40;;;2.30;;
8001;SDS011;4046;48.774;8.732;2023-04-06T07:46:19;2.70;;;2.50;;
8001;SDS011;4046;48.774;8.732;2023-04-06T07:48:46;2.63;;;2.53;;
8001;SDS011;4046;48.774;8.732;2023-04-06T07:51:12;3.00;;;2.80;;
8001;SDS011;4046;48.774;8.732;2023-04-06T07:53:40;2.50;;;2.30;;
8001;SDS011;4046;48.774;8.732;2023-04-06T07:56:07;2.60;;;2.50;;
8001;SDS011;4046;48.774;8.732;2023-04-06T07:58:33;4.20;;;2.33;;
8001;SDS011;4046;48.774;8.732;2023-04-06T08:01:00;2.70;;;2.50;;
8001;SDS011;4046;48.774;8.732;2023-04-06T08:03:27;3.00;;;2.13;;
8001;SDS011;4046;48.774;8.732;2023-04-06T08:05:53;4.40;;;2.80;;
8001;SDS011;4046;48.774;8.732;2023-04-06T08:08:20;3.97;;;2.40;;
8001;SDS011;4046;48.774;8.732;2023-04-06T08:10:47;6.33;;;2.67;;
8001;SDS011;4046;48.774;8.732;2023-04-06T08:13:14;3.23;;;2.93;;
8001;SDS011;4046;48.774;8.732;2023-04-06T08:15:42;2.90;;;2.23;;
8001;SDS011;4046;48.774;8.732;2023-04-06T08:18:08;2.80;;;2.50;;
8001;SDS011;4046;48.774;8.732;2023-04-06T08:20:35;2.77;;;2.20;;
8001;SDS011;4046;48.774;8.732;2023-04-06T08:23:01;4.10;;;2.77;;
8001;SDS011;4046;48.774;8.732;2023-04-06T08:25:28;2.83;;;2.63;;
8001;SDS011;4046;48.774;8.732;2023-04-06T08:27:55;5.03;;;2.60;;
8001;SDS011;4046;48.774;8.732;2023-04-06T08:30:21;4.10;;;2.50;;
8001;SDS011;4046;48.774;8.732;2023-04-06T08:32:48;2.70;;;2.50;;
8001;SDS011;4046;48.774;8.732;2023-04-06T08:35:14;2.57;;;2.37;;
8001;SDS011;4046;48.774;8.732;2023-04-06T08:37:40;2.50;;;2.30;;
8001;SDS011;4046;48.774;8.732;2023-04-06T08:40:06;5.27;;;2.40;;
8001;SDS011;4046;48.774;8.732;2023-04-06T08:42:33;2.90;;;2.60;;
8001;SDS011;4046;48.774;8.732;2023-04-06T08:45:05;3.00;;;2.70;;
8001;SDS011;4046;48.774;8.732;2023-04-06T08:47:32;2.73;;;2.43;;
8001;SDS011;4046;48.774;8.732;2023-04-06T08:50:00;3.10;;;2.90;;
8001;SDS011;4046;48.774;8.732;2023-04-06T08:52:31;2.60;;;2.40;;
8001;SDS011;4046;48.774;8.732;2023-04-06T08:54:58;3.20;;;3.00;;
8001;SDS011;4046;48.774;8.732;2023-04-06T08:57:25;2.80;;;2.60;;
8001;SDS011;4046;48.774;8.732;2023-04-06T08:59:52;3.40;;;2.63;;
8001;SDS011;4046;48.774;8.732;2023-04-06T09:02:20;2.73;;;2.53;;
8001;SDS011;4046;48.774;8.732;2023-04-06T09:04:48;5.47;;;2.60;;
8001;SDS011;4046;48.774;8.732;2023-04-06T09:07:17;2.97;;;2.77;;
8001;SDS011;4046;48.774;8.732;2023-04-06T09:09:44;3.30;;;2.90;;
8001;SDS011;4046;48.774;8.732;2023-04-06T09:12:29;2.90;;;2.53;;
8001;SDS011;4046;48.774;8.732;2023-04-06T09:14:57;2.67;;;2.47;;
8001;SDS011;4046;48.774;8.732;2023-04-06T09:17:26;2.97;;;2.77;;
8001;SDS011;4046;48.774;8.732;2023-04-06T09:19:54;3.00;;;2.43;;
8001;SDS011;4046;48.774;8.732;2023-04-06T09:22:21;2.63;;;2.43;;
8001;SDS011;4046;48.774;8.732;2023-04-06T09:24:49;2.90;;;2.60;;
8001;SDS011;4046;48.774;8.732;2023-04-06T09:27:17;2.50;;;2.30;;
8001;SDS011;4046;48.774;8.732;2023-04-06T09:30:02;3.40;;;2.53;;
8001;SDS011;4046;48.774;8.732;2023-04-06T09:32:32;3.17;;;2.70;;
8001;SDS011;4046;48.774;8.732;2023-04-06T09:35:11;2.70;;;2.57;;
8001;SDS011;4046;48.774;8.732;2023-04-06T09:37:37;2.30;;;2.20;;
8001;SDS011;4046;48.774;8.732;2023-04-06T09:40:07;2.50;;;2.40;;
8001;SDS011;4046;48.774;8.732;2023-04-06T09:42:34;3.30;;;2.60;;
8001;SDS011;4046;48.774;8.732;2023-04-06T09:45:01;2.73;;;2.53;;
8001;SDS011;4046;48.774;8.732;2023-04-06T09:47:28;4.83;;;2.60;;
8001;SDS011;4046;48.774;8.732;2023-04-06T09:49:57;2.53;;;2.37;;
8001;SDS011;4046;48.774;8.732;2023-04-06T09:52:26;2.90;;;2.70;;
8001;SDS011;4046;48.774;8.732;2023-04-06T09:54:55;2.90;;;2.70;;
8001;SDS011;4046;48.774;8.732;2023-04-06T09:57:25;2.83;;;2.63;;
8001;SDS011;4046;48.774;8.732;2023-04-06T10:02:39;3.83;;;3.33;;
8001;SDS011;4046;48.774;8.732;2023-04-06T10:05:16;3.37;;;3.07;;
8001;SDS011;4046;48.774;8.732;2023-04-06T10:08:08;3.97;;;2.90;;
8001;SDS011;4046;48.774;8.732;2023-04-06T10:10:36;3.07;;;2.87;;
8001;SDS011;4046;48.774;8.732;2023-04-06T10:13:03;3.07;;;2.77;;
8001;SDS011;4046;48.774;8.732;2023-04-06T10:15:30;2.77;;;2.57;;
8001;SDS011;4046;48.774;8.732;2023-04-06T10:18:00;3.30;;;2.43;;
8001;SDS011;4046;48.774;8.732;2023-04-06T10:20:29;2.87;;;2.67;;
8001;SDS011;4046;48.774;8.732;2023-04-06T10:23:36;2.87;;;2.40;;
8001;SDS011;4046;48.774;8.732;2023-04-06T10:26:20;2.83;;;2.60;;
8001;SDS011;4046;48.774;8.732;2023-04-06T10:28:47;2.53;;;2.33;;
8001;SDS011;4046;48.774;8.732;2023-04-06T10:31:15;4.33;;;2.70;;
8001;SDS011;4046;48.774;8.732;2023-04-06T10:33:59;2.43;;;2.23;;
8001;SDS011;4046;48.774;8.732;2023-04-06T10:36:27;2.97;;;2.70;;
8001;SDS011;4046;48.774;8.732;2023-04-06T10:38:59;7.00;;;2.57;;
8001;SDS011;4046;48.774;8.732;2023-04-06T10:41:33;3.27;;;2.97;;
8001;SDS011;4046;48.774;8.732;2023-04-06T10:44:00;2.83;;;2.63;;
8001;SDS011;4046;48.774;8.732;2023-04-06T10:46:27;2.97;;;2.73;;
8001;SDS011;4046;48.774;8.732;2023-04-06T10:48:56;3.67;;;3.20;;
8001;SDS011;4046;48.774;8.732;2023-04-06T10:51:26;3.00;;;2.80;;
8001;SDS011;4046;48.774;8.732;2023-04-06T10:53:54;3.80;;;3.50;;
8001;SDS011;4046;48.774;8.732;2023-04-06T10:56:22;3.60;;;3.30;;
8001;SDS011;4046;48.774;8.732;2023-04-06T10:58:51;3.27;;;3.07;;
8001;SDS011;4046;48.774;8.732;2023-04-06T11:01:19;3.53;;;3.33;;
8001;SDS011;4046;48.774;8.732;2023-04-06T11:03:55;3.70;;;3.40;;
8001;SDS011;4046;48.774;8.732;2023-04-06T11:06:25;3.50;;;3.27;;
8001;SDS011;4046;48.774;8.732;2023-04-06T11:08:57;3.30;;;3.10;;
8001;SDS011;4046;48.774;8.732;2023-04-06T11:11:24;3.13;;;2.93;;
8001;SDS011;4046;48.774;8.732;2023-04-06T11:13:52;3.47;;;3.27;;
8001;SDS011;4046;48.774;8.732;2023-04-06T11:16:21;3.13;;;2.90;;
8001;SDS011;4046;48.774;8.732;2023-04-06T11:18:49;3.70;;;3.40;;
8001;SDS011;4046;48.774;8.732;2023-04-06T11:21:16;3.10;;;2.90;;
8001;SDS011;4046;48.774;8.732;2023-04-06T11:23:43;3.20;;;3.00;;
8001;SDS011;4046;48.774;8.732;2023-04-06T11:26:10;3.67;;;3.47;;
8001;SDS011;4046;48.774;8.732;2023-04-06T11:28:38;3.80;;;3.50;;
8001;SDS011;4046;48.774;8.732;2023-04-06T11:31:06;3.20;;;3.00;;
8001;SDS011;4046;48.774;8.732;2023-04-06T11:33:38;3.50;;;3.20;;
8001;SDS011;4046;48.774;8.732;2023-04-06T11:36:05;3.30;;;3.10;;
8001;SDS011;4046;48.774;8.732;2023-04-06T11:38:32;3.20;;;3.00;;
8001;SDS011;4046;48.774;8.732;2023-04-06T11:41:00;3.30;;;3.10;;
8001;SDS011;4046;48.774;8.732;2023-04-06T11:43:29;4.50;;;3.10;;
8001;SDS011;4046;48.774;8.732;2023-04-06T11:45:59;3.10;;;2.90;;
8001;SDS011;4046;48.774;8.732;2023-04-06T11:48:30;3.07;;;2.87;;
8001;SDS011;4046;48.774;8.732;2023-04-06T11:50:57;4.30;;;3.30;;
8001;SDS011;4046;48.774;8.732;2023-04-06T11:53:29;11.77;;;3.50;;
8001;SDS011;4046;48.774;8.732;2023-04-06T11:55:55;7.03;;;3.00;;
8001;SDS011;4046;48.774;8.732;2023-04-06T11:58:22;8.23;;;4.03;;
8001;SDS011;4046;48.774;8.732;2023-04-06T12:00:48;5.50;;;3.57;;
8001;SDS011;4046;48.774;8.732;2023-04-06T12:03:14;4.23;;;3.83;;
8001;SDS011;4046;48.774;8.732;2023-04-06T12:05:41;4.27;;;3.90;;
8001;SDS011;4046;48.774;8.732;2023-04-06T12:08:07;5.70;;;3.80;;
8001;SDS011;4046;48.774;8.732;2023-04-06T12:10:33;5.40;;;3.40;;
8001;SDS011;4046;48.774;8.732;2023-04-06T12:12:59;7.00;;;3.60;;
8001;SDS011;4046;48.774;8.732;2023-04-06T12:15:26;3.50;;;3.30;;
8001;SDS011;4046;48.774;8.732;2023-04-06T12:17:52;3.77;;;3.50;;
8001;SDS011;4046;48.774;8.732;2023-04-06T12:20:18;3.27;;;2.97;;
8001;SDS011;4046;48.774;8.732;2023-04-06T12:22:45;9.40;;;4.00;;
8001;SDS011;4046;48.774;8.732;2023-04-06T12:25:11;3.50;;;3.20;;
8001;SDS011;4046;48.774;8.732;2023-04-06T12:27:37;3.97;;;3.57;;
8001;SDS011;4046;48.774;8.732;2023-04-06T12:30:04;3.50;;;3.30;;
8001;SDS011;4046;48.774;8.732;2023-04-06T12:32:31;3.97;;;3.67;;
8001;SDS011;4046;48.774;8.732;2023-04-06T12:34:57;3.40;;;3.10;;
8001;SDS011;4046;48.774;8.732;2023-04-06T12:37:23;3.63;;;3.37;;
8001;SDS011;4046;48.774;8.732;2023-04-06T12:39:49;3.83;;;3.57;;
8001;SDS011;4046;48.774;8.732;2023-04-06T12:42:15;4.07;;;3.77;;
8001;SDS011;4046;48.774;8.732;2023-04-06T12:44:42;3.70;;;3.50;;
8001;SDS011;4046;48.774;8.732;2023-04-06T12:47:08;3.33;;;3.13;;
8001;SDS011;4046;48.774;8.732;2023-04-06T12:49:36;3.33;;;3.03;;
8001;SDS011;4046;48.774;8.732;2023-04-06T12:52:02;3.40;;;3.20;;
8001;SDS011;4046;48.774;8.732;2023-04-06T12:54:29;3.60;;;3.40;;
8001;SDS011;4046;48.774;8.732;2023-04-06T12:56:55;3.07;;;2.87;;
8001;SDS011;4046;48.774;8.732;2023-04-06T12:59:22;3.70;;;3.40;;
8001;SDS011;4046;48.774;8.732;2023-04-06T13:01:50;3.57;;;3.37;;
8001;SDS011;4046;48.774;8.732;2023-04-06T13:04:18;3.30;;;3.10;;
8001;SDS011;4046;48.774;8.732;2023-04-06T13:06:44;3.70;;;3.40;;
8001;SDS011;4046;48.774;8.732;2023-04-06T13:09:11;3.20;;;3.00;;
8001;SDS011;4046;48.774;8.732;2023-04-06T13:11:37;3.20;;;3.00;;
8001;SDS011;4046;48.774;8.732;2023-04-06T13:14:04;5.57;;;2.97;;
8001;SDS011;4046;48.774;8.732;2023-04-06T13:16:30;3.57;;;3.37;;
8001;SDS011;4046;48.774;8.732;2023-04-06T13:18:57;3.63;;;2.73;;
8001;SDS011;4046;48.774;8.732;2023-04-06T13:21:24;3.13;;;2.93;;
8001;SDS011;4046;48.774;8.732;2023-04-06T13:23:50;3.30;;;3.10;;
8001;SDS011;4046;48.774;8.732;2023-04-06T13:26:17;2.87;;;2.73;;
8001;SDS011;4046;48.774;8.732;2023-04-06T13:28:43;3.47;;;3.17;;
8001;SDS011;4046;48.774;8.732;2023-04-06T13:31:10;3.37;;;3.07;;
8001;SDS011;4046;48.774;8.732;2023-04-06T13:33:36;3.23;;;3.03;;
8001;SDS011;4046;48.774;8.732;2023-04-06T13:36:04;3.40;;;3.20;;
8001;SDS011;4046;48.774;8.732;2023-04-06T13:38:32;3.53;;;3.33;;
8001;SDS011;4046;48.774;8.732;2023-04-06T13:40:59;3.33;;;3.13;;
8001;SDS011;4046;48.774;8.732;2023-04-06T13:43:26;3.33;;;3.03;;
8001;SDS011;4046;48.774;8.732;2023-04-06T13:45:53;3.30;;;3.07;;
8001;SDS011;4046;48.774;8.732;2023-04-06T13:48:21;2.97;;;2.77;;
8001;SDS011;4046;48.774;8.732;2023-04-06T13:50:48;3.03;;;2.83;;
8001;SDS011;4046;48.774;8.732;2023-04-06T13:53:14;3.30;;;3.10;;
8001;SDS011;4046;48.774;8.732;2023-04-06T13:55:41;3.17;;;2.97;;
8001;SDS011;4046;48.774;8.732;2023-04-06T13:58:07;3.43;;;3.13;;
8001;SDS011;4046;48.774;8.732;2023-04-06T14:00:33;5.90;;;2.87;;
8001;SDS011;4046;48.774;8.732;2023-04-06T14:02:59;6.60;;;3.50;;
8001;SDS011;4046;48.774;8.732;2023-04-06T14:05:26;3.47;;;2.80;;
8001;SDS011;4046;48.774;8.732;2023-04-06T14:07:56;3.23;;;2.93;;
8001;SDS011;4046;48.774;8.732;2023-04-06T14:10:22;2.90;;;2.70;;
8001;SDS011;4046;48.774;8.732;2023-04-06T14:12:49;3.70;;;3.40;;
8001;SDS011;4046;48.774;8.732;2023-04-06T14:15:15;3.80;;;3.50;;
8001;SDS011;4046;48.774;8.732;2023-04-06T14:17:42;3.20;;;3.00;;
8001;SDS011;4046;48.774;8.732;2023-04-06T14:20:08;3.03;;;2.83;;
8001;SDS011;4046;48.774;8.732;2023-04-06T14:22:40;5.50;;;3.07;;
8001;SDS011;4046;48.774;8.732;2023-04-06T14:25:07;2.80;;;2.60;;
8001;SDS011;4046;48.774;8.732;2023-04-06T14:27:34;3.10;;;2.90;;
8001;SDS011;4046;48.774;8.732;2023-04-06T14:30:00;3.10;;;2.90;;
8001;SDS011;4046;48.774;8.732;2023-04-06T14:32:26;3.00;;;2.70;;
8001;SDS011;4046;48.774;8.732;2023-04-06T14:34:52;3.50;;;3.20;;
8001;SDS011;4046;48.774;8.732;2023-04-06T14:37:18;2.70;;;2.50;;
8001;SDS011;4046;48.774;8.732;2023-04-06T14:39:46;4.03;;;2.70;;
8001;SDS011;4046;48.774;8.732;2023-04-06T14:42:12;2.90;;;2.60;;
8001;SDS011;4046;48.774;8.732;2023-04-06T14:44:38;3.20;;;3.00;;
8001;SDS011;4046;48.774;8.732;2023-04-06T14:47:09;2.77;;;2.57;;
8001;SDS011;4046;48.774;8.732;2023-04-06T14:49:35;2.97;;;2.70;;
8001;SDS011;4046;48.774;8.732;2023-04-06T14:52:02;2.70;;;2.53;;
8001;SDS011;4046;48.774;8.732;2023-04-06T14:54:28;2.43;;;2.33;;
8001;SDS011;4046;48.774;8.732;2023-04-06T14:56:54;2.73;;;2.50;;
8001;SDS011;4046;48.774;8.732;2023-04-06T14:59:22;2.70;;;2.50;;
8001;SDS011;4046;48.774;8.732;2023-04-06T15:01:48;2.70;;;2.60;;
8001;SDS011;4046;48.774;8.732;2023-04-06T15:04:14;3.13;;;2.83;;
8001;SDS011;4046;48.774;8.732;2023-04-06T15:06:40;3.30;;;3.00;;
8001;SDS011;4046;48.774;8.732;2023-04-06T15:09:07;2.90;;;2.70;;
8001;SDS011;4046;48.774;8.732;2023-04-06T15:11:33;2.87;;;2.67;;
8001;SDS011;4046;48.774;8.732;2023-04-06T15:13:59;2.47;;;2.37;;
8001;SDS011;4046;48.774;8.732;2023-04-06T15:16:26;2.70;;;2.50;;
8001;SDS011;4046;48.774;8.732;2023-04-06T15:18:52;2.80;;;2.60;;